Terminal Aerodrome Forecast
Issued by NWS

Home | Current Version | Previous Version | Text Only | Print | Product List | Glossary On
Versions: 1 2 3 4 5 6 7 8 9 10 11 12 13 14
834
FTUS42 TJSJ 281305 AAB
TAFJSJ
TAF AMD
TJSJ 281305Z 2813/2912 11005KT P6SM FEW025 SCT040
     FM281330 10015G25KT P6SM FEW028 FEW050
     FM282200 08013KT P6SM VCSH SCT025 SCT050
     FM290400 09020KT P6SM VCSH SCT025 SCT040=

USA.gov is the U.S. government's official web portal to all federal, state and local government web resources and services.